createdAt,value
2022-10-09T00:01:30.997Z,87.70
2022-10-09T00:04:00.829Z,87.40
2022-10-09T00:06:31.885Z,86.30
2022-10-09T00:09:02.009Z,86.40
2022-10-09T00:11:33.151Z,86.20
2022-10-09T00:14:02.151Z,86.10
2022-10-09T00:16:32.048Z,85.90
2022-10-09T00:19:00.516Z,86.50
2022-10-09T00:21:31.482Z,87.30
2022-10-09T00:24:01.644Z,87.40
2022-10-09T00:26:30.578Z,87.50
2022-10-09T00:28:59.277Z,86.90
2022-10-09T00:31:27.610Z,86.10
2022-10-09T00:33:57.573Z,86.80
2022-10-09T00:36:27.731Z,87.10
2022-10-09T00:38:56.987Z,87.40
2022-10-09T00:41:28.638Z,87.50
2022-10-09T00:43:59.929Z,87.70
2022-10-09T00:46:36.891Z,87.10
2022-10-09T00:49:26.395Z,87.20
2022-10-09T00:51:58.638Z,87.70
2022-10-09T00:54:30.888Z,88.00
2022-10-09T00:56:59.251Z,87.80
2022-10-09T00:59:28.206Z,87.00
2022-10-09T01:01:56.713Z,86.90
2022-10-09T01:04:26.499Z,87.00
2022-10-09T01:07:20.800Z,87.40
2022-10-09T01:09:57.155Z,87.70
2022-10-09T01:12:40.462Z,87.80
2022-10-09T01:15:18.091Z,87.60
2022-10-09T01:17:54.904Z,87.00
2022-10-09T01:20:49.798Z,86.70
2022-10-09T01:24:04.130Z,86.70
2022-10-09T01:26:57.877Z,87.80
2022-10-09T01:29:31.954Z,87.90
2022-10-09T01:32:02.920Z,87.70
2022-10-09T01:34:32.586Z,88.20
2022-10-09T01:37:01.785Z,88.00
2022-10-09T01:39:31.508Z,87.80
2022-10-09T01:42:01.207Z,87.10
2022-10-09T01:44:32.262Z,87.40
2022-10-09T01:47:01.391Z,87.80
2022-10-09T01:49:49.813Z,87.60
2022-10-09T01:52:37.073Z,87.20
2022-10-09T01:55:28.604Z,87.00
2022-10-09T01:58:06.813Z,87.30
2022-10-09T02:00:39.473Z,88.20
2022-10-09T02:03:12.966Z,88.10
2022-10-09T02:05:43.484Z,87.80
2022-10-09T02:08:16.777Z,87.80
2022-10-09T02:10:46.764Z,88.00
2022-10-09T02:13:16.493Z,88.20
2022-10-09T02:15:50.223Z,87.80
2022-10-09T02:18:24.511Z,87.90
2022-10-09T02:20:56.988Z,88.10
2022-10-09T02:23:26.885Z,88.70
2022-10-09T02:25:55.536Z,88.60
2022-10-09T02:28:25.259Z,88.60
2022-10-09T02:31:02.827Z,88.80
2022-10-09T02:33:35.400Z,88.30
2022-10-09T02:36:03.781Z,88.20
2022-10-09T02:38:32.034Z,88.30
2022-10-09T02:41:01.301Z,87.10
2022-10-09T02:43:31.244Z,87.00
2022-10-09T02:45:59.484Z,87.40
2022-10-09T02:48:27.756Z,87.90
2022-10-09T02:50:56.016Z,87.70
2022-10-09T02:53:24.345Z,88.30
2022-10-09T02:55:52.609Z,88.50
2022-10-09T02:58:21.179Z,88.50
2022-10-09T03:00:51.751Z,87.90
2022-10-09T03:03:21.511Z,87.60
2022-10-09T03:05:49.772Z,87.90
2022-10-09T03:08:17.977Z,88.30
2022-10-09T03:10:46.235Z,88.80
2022-10-09T03:13:14.425Z,88.90
2022-10-09T03:15:42.629Z,88.20
2022-10-09T03:18:12.253Z,88.10
2022-10-09T03:20:40.580Z,88.10
2022-10-09T03:23:08.818Z,87.60
2022-10-09T03:25:37.053Z,87.70
2022-10-09T03:28:05.669Z,87.60
2022-10-09T03:30:33.953Z,88.20
2022-10-09T03:33:02.267Z,88.40
2022-10-09T03:35:31.891Z,87.90
2022-10-09T03:38:00.082Z,88.00
2022-10-09T03:40:28.359Z,87.70
2022-10-09T03:42:56.573Z,87.40
2022-10-09T03:45:24.760Z,87.90
2022-10-09T03:47:53.076Z,88.10
2022-10-09T03:50:21.423Z,88.00
2022-10-09T03:52:51.492Z,88.10
2022-10-09T03:55:20.024Z,88.20
2022-10-09T03:57:48.309Z,88.40
2022-10-09T04:00:17.154Z,88.00
2022-10-09T04:02:45.478Z,87.60
2022-10-09T04:05:13.860Z,87.20
2022-10-09T04:07:42.077Z,87.60
2022-10-09T04:10:12.533Z,87.60
2022-10-09T04:12:41.284Z,88.10
2022-10-09T04:15:11.237Z,88.40
2022-10-09T04:17:39.521Z,88.30
2022-10-09T04:20:09.182Z,88.50
2022-10-09T04:22:37.396Z,88.80
2022-10-09T04:25:06.492Z,90.30
2022-10-09T04:27:36.064Z,91.00
2022-10-09T04:30:05.192Z,91.20
2022-10-09T04:32:33.410Z,91.10
2022-10-09T04:35:01.613Z,90.90
2022-10-09T04:37:29.869Z,90.60
2022-10-09T04:39:58.094Z,90.60
2022-10-09T04:42:26.344Z,90.40
2022-10-09T04:44:55.968Z,90.20
2022-10-09T04:47:24.227Z,90.10
2022-10-09T04:49:52.536Z,90.20
2022-10-09T04:52:20.850Z,90.10
2022-10-09T04:54:49.064Z,90.00
2022-10-09T04:57:17.330Z,89.80
2022-10-09T04:59:45.590Z,89.90
2022-10-09T05:02:15.238Z,90.00
2022-10-09T05:04:44.190Z,90.00
2022-10-09T05:07:12.518Z,89.90
2022-10-09T05:09:40.725Z,89.90
2022-10-09T05:12:09.112Z,89.60
2022-10-09T05:14:37.309Z,89.50
2022-10-09T05:17:14.399Z,89.50
2022-10-09T05:19:44.493Z,89.50
2022-10-09T05:22:12.829Z,89.40
2022-10-09T05:24:41.066Z,89.40
2022-10-09T05:27:09.326Z,89.30
2022-10-09T05:29:37.561Z,89.20
2022-10-09T05:32:06.016Z,89.00
2022-10-09T05:34:35.407Z,89.30
2022-10-09T05:37:05.066Z,89.10
2022-10-09T05:39:35.852Z,89.20
2022-10-09T05:42:04.292Z,89.40
2022-10-09T05:44:32.602Z,89.30
2022-10-09T05:47:00.890Z,89.50
2022-10-09T05:49:29.232Z,89.50
2022-10-09T05:51:57.610Z,89.30
2022-10-09T05:54:27.432Z,89.50
2022-10-09T05:56:55.649Z,89.50
2022-10-09T05:59:23.909Z,89.40
2022-10-09T06:01:54.543Z,89.40
2022-10-09T06:04:24.962Z,88.80
2022-10-09T06:06:53.668Z,88.30
2022-10-09T06:09:24.106Z,88.30
2022-10-09T06:11:55.562Z,87.90
2022-10-09T06:14:24.550Z,88.40
2022-10-09T06:16:53.206Z,89.30
2022-10-09T06:19:23.005Z,89.90
2022-10-09T06:21:51.964Z,90.20
2022-10-09T06:24:28.117Z,90.20
2022-10-09T06:26:59.120Z,90.40
2022-10-09T06:29:27.878Z,90.30
2022-10-09T06:31:56.148Z,90.20
2022-10-09T06:34:24.712Z,90.00
2022-10-09T06:36:53.040Z,89.80
2022-10-09T06:39:22.523Z,89.70
2022-10-09T06:41:50.930Z,89.40
2022-10-09T06:44:20.620Z,89.40
2022-10-09T06:46:51.290Z,89.20
2022-10-09T06:49:19.806Z,89.00
2022-10-09T06:51:48.497Z,89.10
2022-10-09T06:54:17.503Z,89.10
2022-10-09T06:56:46.189Z,89.20
2022-10-09T06:59:14.511Z,89.20
2022-10-09T07:01:44.202Z,89.20
2022-10-09T07:04:17.754Z,89.20
2022-10-09T07:06:48.302Z,89.20
2022-10-09T07:09:17.627Z,89.10
2022-10-09T07:11:49.292Z,89.20
2022-10-09T07:14:18.037Z,89.10
2022-10-09T07:16:49.772Z,89.00
2022-10-09T07:19:19.128Z,89.10
2022-10-09T07:21:51.405Z,88.80
2022-10-09T07:24:20.720Z,89.00
2022-10-09T07:26:49.426Z,88.90
2022-10-09T07:29:19.950Z,88.80
2022-10-09T07:31:50.252Z,89.00
2022-10-09T07:34:18.452Z,88.60
2022-10-09T07:36:46.667Z,88.60
2022-10-09T07:39:14.871Z,88.60
2022-10-09T07:41:43.396Z,88.30
2022-10-09T07:44:12.257Z,88.00
2022-10-09T07:46:40.599Z,87.60
2022-10-09T07:49:10.577Z,87.60
2022-10-09T07:51:38.859Z,87.30
2022-10-09T07:54:07.324Z,87.20
2022-10-09T07:56:37.943Z,86.90
2022-10-09T07:59:11.699Z,86.20
2022-10-09T08:01:41.007Z,86.50
2022-10-09T08:04:10.778Z,86.10
2022-10-09T08:06:39.901Z,85.60
2022-10-09T08:09:09.227Z,84.80
2022-10-09T08:11:40.606Z,84.70
2022-10-09T08:14:18.076Z,85.10
2022-10-09T08:16:47.728Z,84.40
2022-10-09T08:19:17.398Z,83.90
2022-10-09T08:21:45.702Z,83.30
2022-10-09T08:24:14.003Z,83.50
2022-10-09T08:26:42.930Z,83.00
2022-10-09T08:29:13.866Z,82.40
2022-10-09T08:31:42.586Z,82.50
2022-10-09T08:34:12.089Z,81.60
2022-10-09T08:36:41.891Z,81.00
2022-10-09T08:39:10.267Z,79.90
2022-10-09T08:41:48.519Z,79.80
2022-10-09T08:44:22.100Z,79.80
2022-10-09T08:47:06.434Z,79.10
2022-10-09T08:49:45.342Z,78.80
2022-10-09T08:52:32.572Z,78.70
2022-10-09T08:55:08.633Z,77.90
2022-10-09T08:57:36.932Z,77.40
2022-10-09T09:00:17.327Z,77.20
2022-10-09T09:03:09.058Z,76.10
2022-10-09T09:05:45.855Z,75.70
2022-10-09T09:08:29.444Z,75.00
2022-10-09T09:11:19.264Z,74.80
2022-10-09T09:14:04.676Z,74.80
2022-10-09T09:16:42.588Z,73.30
2022-10-09T09:19:36.992Z,73.00
2022-10-09T09:22:09.121Z,73.10
2022-10-09T09:24:43.934Z,72.10
2022-10-09T09:27:15.755Z,72.90
2022-10-09T09:29:50.340Z,71.10
2022-10-09T09:32:24.984Z,71.20
2022-10-09T09:34:59.794Z,70.00
2022-10-09T09:37:28.180Z,70.60
2022-10-09T09:42:47.839Z,69.10
2022-10-09T09:45:22.352Z,68.50
2022-10-09T09:47:55.938Z,67.20
2022-10-09T09:50:48.687Z,68.30
2022-10-09T09:53:30.956Z,66.40
2022-10-09T09:56:01.106Z,66.60
2022-10-09T09:58:37.246Z,67.30
2022-10-09T10:01:07.724Z,66.00
2022-10-09T10:03:37.401Z,65.10
2022-10-09T10:06:06.472Z,64.10
2022-10-09T10:08:35.980Z,64.80
2022-10-09T10:11:08.548Z,64.70
2022-10-09T10:13:40.193Z,64.80
2022-10-09T10:16:09.769Z,64.60
2022-10-09T10:18:41.678Z,64.80
2022-10-09T10:21:14.160Z,64.00
2022-10-09T10:23:45.810Z,64.40
2022-10-09T10:26:29.954Z,62.90
2022-10-09T10:29:04.676Z,63.00
2022-10-09T10:31:54.994Z,62.00
2022-10-09T10:34:29.587Z,62.60
2022-10-09T10:37:07.256Z,60.80
2022-10-09T10:39:42.989Z,60.40
2022-10-09T10:42:22.506Z,61.70
2022-10-09T10:44:59.495Z,61.50
2022-10-09T10:47:32.315Z,61.40
2022-10-09T10:50:00.608Z,60.40
2022-10-09T10:52:53.013Z,59.80
2022-10-09T10:55:34.769Z,60.30
2022-10-09T10:58:26.540Z,59.00
2022-10-09T11:01:15.811Z,58.20
2022-10-09T11:04:10.512Z,57.60
2022-10-09T11:06:45.394Z,58.40
2022-10-09T11:09:22.714Z,60.70
2022-10-09T11:11:58.925Z,56.70
2022-10-09T11:14:43.967Z,54.80
2022-10-09T11:17:22.856Z,54.50
2022-10-09T11:20:15.925Z,55.90
2022-10-09T11:23:06.313Z,57.40
2022-10-09T11:25:42.192Z,56.90
2022-10-09T11:28:15.418Z,56.00
2022-10-09T11:30:51.431Z,55.60
2022-10-09T11:33:34.430Z,57.50
2022-10-09T11:36:11.322Z,55.30
2022-10-09T11:38:45.854Z,55.70
2022-10-09T11:41:14.630Z,53.80
2022-10-09T11:43:59.372Z,55.70
2022-10-09T11:46:43.319Z,55.90
2022-10-09T11:49:21.884Z,55.70
2022-10-09T11:51:58.288Z,55.10
2022-10-09T11:54:27.586Z,55.30
2022-10-09T11:56:59.418Z,54.30
2022-10-09T11:59:31.280Z,54.20
2022-10-09T12:02:14.618Z,54.10
2022-10-09T12:04:54.478Z,53.10
2022-10-09T12:07:35.920Z,53.30
2022-10-09T12:10:09.208Z,53.80
2022-10-09T12:12:38.946Z,53.20
2022-10-09T12:15:29.866Z,52.70
2022-10-09T12:17:59.562Z,52.20
2022-10-09T12:20:29.613Z,54.00
2022-10-09T12:23:25.810Z,52.60
2022-10-09T12:25:51.646Z,53.10
2022-10-09T12:28:28.233Z,52.80
2022-10-09T12:30:58.141Z,53.80
2022-10-09T12:33:35.116Z,54.40
2022-10-09T12:36:11.450Z,53.70
2022-10-09T12:38:39.833Z,51.80
2022-10-09T12:41:19.377Z,54.00
2022-10-09T12:43:50.221Z,53.60
2022-10-09T12:46:29.813Z,54.60
2022-10-09T12:49:00.993Z,53.60
2022-10-09T12:51:32.241Z,53.30
2022-10-09T12:54:01.395Z,52.80
2022-10-09T12:56:33.276Z,53.10
2022-10-09T12:59:03.051Z,51.30
2022-10-09T13:01:32.313Z,52.10
2022-10-09T13:04:04.903Z,53.30
2022-10-09T13:06:39.552Z,53.80
2022-10-09T13:09:10.204Z,51.90
2022-10-09T13:11:42.542Z,52.70
2022-10-09T13:14:34.591Z,54.60
2022-10-09T13:17:03.998Z,54.40
2022-10-09T13:19:35.952Z,55.10
2022-10-09T13:22:21.786Z,53.00
2022-10-09T13:24:54.531Z,53.00
2022-10-09T13:27:26.698Z,52.60
2022-10-09T13:29:55.318Z,53.50
2022-10-09T13:32:24.971Z,54.30
2022-10-09T13:34:55.655Z,53.10
2022-10-09T13:37:25.601Z,53.70
2022-10-09T13:39:54.804Z,54.70
2022-10-09T13:42:25.257Z,53.20
2022-10-09T13:44:53.812Z,54.30
2022-10-09T13:47:24.693Z,52.70
2022-10-09T13:49:54.646Z,53.10
2022-10-09T13:52:22.985Z,53.40
2022-10-09T13:54:51.238Z,53.70
2022-10-09T13:57:19.512Z,51.90
2022-10-09T13:59:47.726Z,52.00
2022-10-09T14:02:16.096Z,53.20
2022-10-09T14:04:44.530Z,52.30
2022-10-09T14:07:14.095Z,51.50
2022-10-09T14:09:42.409Z,50.90
2022-10-09T14:12:10.678Z,50.30
2022-10-09T14:14:39.181Z,50.30
2022-10-09T14:17:07.453Z,50.60
2022-10-09T14:19:35.862Z,51.90
2022-10-09T14:22:04.137Z,50.70
2022-10-09T14:24:34.025Z,49.40
2022-10-09T14:27:02.441Z,49.70
2022-10-09T14:29:30.655Z,49.50
2022-10-09T14:31:58.926Z,49.70
2022-10-09T14:34:27.253Z,49.50
2022-10-09T14:36:55.604Z,50.30
2022-10-09T14:39:23.882Z,50.00
2022-10-09T14:41:53.539Z,48.70
2022-10-09T14:44:21.819Z,49.30
2022-10-09T14:46:50.059Z,49.50
2022-10-09T14:49:18.372Z,50.10
2022-10-09T14:51:47.060Z,49.80
2022-10-09T14:54:15.620Z,50.20
2022-10-09T14:56:43.906Z,48.80
2022-10-09T14:59:13.858Z,49.60
2022-10-09T15:01:42.088Z,50.50
2022-10-09T15:04:10.767Z,49.40
2022-10-09T15:06:39.061Z,50.20
2022-10-09T15:09:07.331Z,48.90
2022-10-09T15:11:36.993Z,49.40
2022-10-09T15:14:05.897Z,49.10
2022-10-09T15:16:36.071Z,50.30
2022-10-09T15:19:05.743Z,51.30
2022-10-09T15:21:36.333Z,51.40
2022-10-09T15:24:06.435Z,51.30
2022-10-09T15:26:36.934Z,51.00
2022-10-09T15:29:08.415Z,51.90
2022-10-09T15:31:40.624Z,51.70
2022-10-09T15:34:11.846Z,51.70
2022-10-09T15:36:43.108Z,51.60
2022-10-09T15:39:11.494Z,52.00
2022-10-09T15:41:41.943Z,52.30
2022-10-09T15:44:16.304Z,51.40
2022-10-09T15:46:47.545Z,51.90
2022-10-09T15:49:16.007Z,52.20
2022-10-09T15:51:44.342Z,52.40
2022-10-09T15:54:14.383Z,52.60
2022-10-09T15:56:42.788Z,52.00
2022-10-09T15:59:13.588Z,52.20
2022-10-09T16:01:42.020Z,52.60
2022-10-09T16:04:11.875Z,52.80
2022-10-09T16:06:40.175Z,52.80
2022-10-09T16:09:08.532Z,53.60
2022-10-09T16:11:36.807Z,53.60
2022-10-09T16:14:05.400Z,54.00
2022-10-09T16:16:33.669Z,54.00
2022-10-09T16:19:05.102Z,54.70
2022-10-09T16:21:35.327Z,55.40
2022-10-09T16:24:03.623Z,55.20
2022-10-09T16:26:32.153Z,55.40
2022-10-09T16:29:01.537Z,55.60
2022-10-09T16:31:34.804Z,55.90
2022-10-09T16:34:03.931Z,56.30
2022-10-09T16:36:32.251Z,56.30
2022-10-09T16:39:01.947Z,56.20
2022-10-09T16:41:30.312Z,56.80
2022-10-09T16:44:00.302Z,57.40
2022-10-09T16:49:04.903Z,57.70
2022-10-09T16:51:35.305Z,58.00
2022-10-09T16:54:07.351Z,57.80
2022-10-09T16:56:40.010Z,58.30
2022-10-09T16:59:11.684Z,59.40
2022-10-09T17:01:43.755Z,59.70
2022-10-09T17:04:13.151Z,59.40
2022-10-09T17:06:42.611Z,59.30
2022-10-09T17:09:14.340Z,59.40
2022-10-09T17:11:43.739Z,60.20
2022-10-09T17:14:12.527Z,59.90
2022-10-09T17:16:43.032Z,61.20
2022-10-09T17:19:11.798Z,61.70
2022-10-09T17:21:40.604Z,61.40
2022-10-09T17:24:09.401Z,61.20
2022-10-09T17:26:39.188Z,62.00
2022-10-09T17:29:07.997Z,63.10
2022-10-09T17:31:36.654Z,62.80
2022-10-09T17:34:06.266Z,63.30
2022-10-09T17:36:36.950Z,64.00
2022-10-09T17:39:07.182Z,64.70
2022-10-09T17:41:35.993Z,66.30
2022-10-09T17:44:05.821Z,65.70
2022-10-09T17:46:34.111Z,67.40
2022-10-09T17:49:02.402Z,67.30
2022-10-09T17:51:33.769Z,68.20
2022-10-09T17:54:08.182Z,68.60
2022-10-09T17:56:39.994Z,69.40
2022-10-09T17:59:10.083Z,70.70
2022-10-09T18:01:40.406Z,70.50
2022-10-09T18:04:08.705Z,71.90
2022-10-09T18:06:37.239Z,72.40
2022-10-09T18:09:05.943Z,73.20
2022-10-09T18:11:34.159Z,72.70
2022-10-09T18:14:03.812Z,73.10
2022-10-09T18:16:37.889Z,73.60
2022-10-09T18:19:10.406Z,72.80
2022-10-09T18:21:41.831Z,73.30
2022-10-09T18:24:10.941Z,73.20
2022-10-09T18:26:39.684Z,73.00
2022-10-09T18:29:08.286Z,72.90
2022-10-09T18:31:38.904Z,73.40
2022-10-09T18:34:07.569Z,73.90
2022-10-09T18:36:36.198Z,73.80
2022-10-09T18:39:07.967Z,73.80
2022-10-09T18:41:37.162Z,74.10
2022-10-09T18:44:17.283Z,73.50
2022-10-09T18:46:50.697Z,73.90
2022-10-09T18:49:22.912Z,73.30
2022-10-09T18:51:51.835Z,73.20
2022-10-09T18:54:23.579Z,73.10
2022-10-09T18:56:52.089Z,72.80
2022-10-09T18:59:22.929Z,72.90
2022-10-09T19:01:52.608Z,73.00
2022-10-09T19:04:20.845Z,72.40
2022-10-09T19:06:49.208Z,72.40
2022-10-09T19:09:17.484Z,72.60
2022-10-09T19:11:45.901Z,72.40
2022-10-09T19:14:15.842Z,72.60
2022-10-09T19:16:44.110Z,72.30
2022-10-09T19:19:13.991Z,72.60
2022-10-09T19:21:43.999Z,72.50
2022-10-09T19:24:13.844Z,72.40
2022-10-09T19:26:42.757Z,72.50
2022-10-09T19:29:11.227Z,72.70
2022-10-09T19:31:39.757Z,72.30
2022-10-09T19:34:08.644Z,72.00
2022-10-09T19:36:38.437Z,72.30
2022-10-09T19:39:09.611Z,72.40
2022-10-09T19:41:42.195Z,71.80
2022-10-09T19:44:11.065Z,72.50
2022-10-09T19:46:43.565Z,72.70
2022-10-09T19:49:11.987Z,72.70
2022-10-09T19:51:43.257Z,72.40
2022-10-09T19:54:14.428Z,72.40
2022-10-09T19:56:42.584Z,73.20
2022-10-09T19:59:11.369Z,73.00
2022-10-09T20:01:40.531Z,72.40
2022-10-09T20:04:11.177Z,73.10
2022-10-09T20:06:42.915Z,73.60
2022-10-09T20:09:12.931Z,73.00
2022-10-09T20:11:41.492Z,72.80
2022-10-09T20:14:14.201Z,73.00
2022-10-09T20:16:42.830Z,73.30
2022-10-09T20:19:11.944Z,72.80
2022-10-09T20:21:45.943Z,73.00
2022-10-09T20:24:16.854Z,72.90
2022-10-09T20:26:45.499Z,73.10
2022-10-09T20:29:14.073Z,73.60
2022-10-09T20:31:42.987Z,72.80
2022-10-09T20:34:11.374Z,72.80
2022-10-09T20:36:40.146Z,72.60
2022-10-09T20:39:13.191Z,72.40
2022-10-09T20:41:43.605Z,72.50
2022-10-09T20:44:13.447Z,72.80
2022-10-09T20:46:42.894Z,72.50
2022-10-09T20:49:15.409Z,72.50
2022-10-09T20:51:44.139Z,72.70
2022-10-09T20:54:18.692Z,72.60
2022-10-09T20:56:48.044Z,73.00
2022-10-09T20:59:18.173Z,72.70
2022-10-09T21:01:46.756Z,72.90
2022-10-09T21:04:15.336Z,73.10
2022-10-09T21:06:43.842Z,73.50
2022-10-09T21:09:12.176Z,73.00
2022-10-09T21:11:42.530Z,73.20
2022-10-09T21:14:11.463Z,72.80
2022-10-09T21:16:40.034Z,73.10
2022-10-09T21:19:08.423Z,73.40
2022-10-09T21:21:36.888Z,72.60
2022-10-09T21:24:05.387Z,72.40
2022-10-09T21:26:36.120Z,72.80
2022-10-09T21:29:06.600Z,72.60
2022-10-09T21:31:35.758Z,72.70
2022-10-09T21:34:04.233Z,72.90
2022-10-09T21:36:51.190Z,72.90
2022-10-09T21:39:29.208Z,73.10
2022-10-09T21:41:57.685Z,72.70
2022-10-09T21:44:27.631Z,73.10
2022-10-09T21:46:55.922Z,72.80
2022-10-09T21:49:27.408Z,73.00
2022-10-09T21:51:56.691Z,73.00
2022-10-09T21:54:25.131Z,73.10
2022-10-09T21:56:53.558Z,73.20
2022-10-09T21:59:21.929Z,73.40
2022-10-09T22:01:51.588Z,72.70
2022-10-09T22:04:19.874Z,72.60
2022-10-09T22:06:48.223Z,73.30
2022-10-09T22:09:16.963Z,73.10
2022-10-09T22:11:45.745Z,73.60
2022-10-09T22:14:14.380Z,74.20
2022-10-09T22:16:42.637Z,74.70
2022-10-09T22:19:12.364Z,75.50
2022-10-09T22:21:40.731Z,75.50
2022-10-09T22:24:10.960Z,76.40
2022-10-09T22:26:39.660Z,76.30
2022-10-09T22:29:08.091Z,76.40
2022-10-09T22:31:36.323Z,76.70
2022-10-09T22:34:04.694Z,76.40
2022-10-09T22:36:35.472Z,76.20
2022-10-09T22:39:07.277Z,76.90
2022-10-09T22:41:36.304Z,76.90
2022-10-09T22:44:08.191Z,77.50
2022-10-09T22:46:39.256Z,77.30
2022-10-09T22:49:09.327Z,77.40
2022-10-09T22:51:39.064Z,77.20
2022-10-09T22:54:07.917Z,77.90
2022-10-09T22:56:38.788Z,77.70
2022-10-09T22:59:08.301Z,77.80
2022-10-09T23:01:40.880Z,78.00
2022-10-09T23:04:12.587Z,77.90
2022-10-09T23:06:43.815Z,78.10
2022-10-09T23:09:14.840Z,78.00
2022-10-09T23:11:43.587Z,78.10
2022-10-09T23:14:13.180Z,78.00
2022-10-09T23:16:41.881Z,78.80
2022-10-09T23:19:10.940Z,78.30
2022-10-09T23:21:42.985Z,78.30
2022-10-09T23:24:15.358Z,78.70
2022-10-09T23:26:43.566Z,78.50
2022-10-09T23:29:17.513Z,78.30
2022-10-09T23:31:46.825Z,78.50
2022-10-09T23:34:15.387Z,78.80
2022-10-09T23:36:44.996Z,78.90
2022-10-09T23:39:14.054Z,78.80
2022-10-09T23:41:42.346Z,78.80
2022-10-09T23:44:10.578Z,78.90
2022-10-09T23:46:38.860Z,79.00
2022-10-09T23:49:07.163Z,79.40
2022-10-09T23:51:35.460Z,79.80
2022-10-09T23:54:06.112Z,79.00
2022-10-09T23:56:36.418Z,79.20
2022-10-09T23:59:07.137Z,79.10
